Latest Weather Observations for Tatura

IDV60801

Issued at 10:02 pm EDT Monday 22 December 2014 (issued every 30 minutes, with the page automatically refreshed every 10 minutes)

About weather observations | Map of weather stations | Latest weather observations for VIC | Other Formats
Station Details ID: 081049 Name: TATURA INST SUSTAINABLE AG Lat: -36.44 Lon: 145.27 Height: 114.0 m
Data from the previous 72 hours. | See also: Recent months at Tatura
Date/Time
EDT
Temp
°C
App
Temp
°C
Dew
Point
Rel
Hum
%
Delta-T
°C
Wind Press
QNH
hPa
Press
MSL
hPa
Rain
since 9 am
mm
Dir
 
Spd
km/h
Gust
km/h
Spd
kts
Gust
kts
22/10:00pm 24.4 20.3 12.7 48 6.8 E 26 41 14 22 - - 0.0
22/09:30pm 25.1 20.2 12.7 46 7.2 E 30 43 16 23 - - 0.0
22/09:00pm 25.5 20.6 12.4 44 7.6 ENE 30 41 16 22 - - 0.0
22/08:30pm 25.5 21.8 12.7 45 7.4 ENE 24 33 13 18 - - 0.0
22/08:00pm 27.2 22.5 10.8 36 9.3 NE 26 37 14 20 - - 0.0
22/07:30pm 28.2 22.5 9.9 32 10.3 NE 30 46 16 25 - - 0.0
22/07:26pm 28.4 23.0 9.6 31 10.5 NE 28 41 15 22 - - 0.0
22/07:00pm 28.7 26.1 9.4 30 10.8 ENE 13 20 7 11 - - 0.0
22/06:30pm 29.0 25.5 8.7 28 11.2 E 17 20 9 11 - - 0.0
22/06:00pm 29.6 26.6 9.2 28 11.4 ENE 15 24 8 13 - - 0.0
22/05:30pm 30.0 26.2 9.0 27 11.7 NE 19 24 10 13 - - 0.0
22/05:00pm 31.0 29.4 8.1 24 12.7 N 6 11 3 6 - - 0.0
22/04:30pm 31.2 27.6 8.2 24 12.8 NNE 17 28 9 15 - - 0.0
22/04:00pm 31.6 28.2 9.2 25 12.7 NNE 17 22 9 12 - - 0.0
22/03:30pm 32.6 28.4 8.1 22 13.7 NNE 20 30 11 16 - - 0.0
22/03:00pm 35.2 31.0 5.6 16 16.1 NNE 17 24 9 13 - - 0.0
22/02:30pm 35.9 31.2 3.2 13 17.2 N 17 22 9 12 - - 0.0
22/02:00pm 35.8 30.5 2.0 12 17.4 NE 19 32 10 17 - - 0.0
22/01:30pm 34.9 31.0 3.5 14 16.5 NNE 13 19 7 10 - - 0.0
22/01:00pm 33.8 29.0 2.6 14 16.0 NNE 17 24 9 13 - - 0.0
22/12:30pm 34.8 30.1 3.4 14 16.4 NNE 17 28 9 15 - - 0.0
22/12:00pm 34.6 29.7 4.2 15 16.1 NNE 19 24 10 13 - - 0.0
22/11:30am 33.9 29.8 6.3 18 15.1 NNE 17 24 9 13 - - 0.0
22/11:00am 31.9 28.6 8.2 23 13.2 NE 15 20 8 11 - - 0.0
22/10:30am 31.9 28.4 8.8 24 13.0 NE 17 20 9 11 - - 0.0
22/10:00am 30.3 26.3 8.1 25 12.2 ENE 19 24 10 13 - - 0.0
22/09:30am 29.1 26.2 9.8 30 10.9 NE 15 22 8 12 - - 0.0
22/09:00am 26.4 24.0 10.1 36 9.1 E 13 17 7 9 - - 0.0
22/08:30am 24.0 22.3 11.3 45 7.2 ESE 11 15 6 8 - - 0.0
22/08:00am 22.2 21.1 11.9 52 5.8 SE 9 11 5 6 - - 0.0
22/07:30am 20.0 19.5 12.5 62 4.2 SSE 7 11 4 6 - - 0.0
22/07:00am 18.2 17.7 12.0 67 3.4 SSE 6 7 3 4 - - 0.0
22/06:30am 16.4 15.2 11.6 73 2.6 SSE 9 11 5 6 - - 0.0
22/06:00am 15.8 14.5 11.2 74 2.5 SSE 9 11 5 6 - - 0.0
22/05:30am 16.4 14.7 11.1 71 2.9 SSE 11 15 6 8 - - 0.0
22/05:00am 16.7 15.4 12.5 76 2.3 SSE 11 13 6 7 - - 0.0
22/04:30am 17.3 17.1 14.8 85 1.5 SSE 9 15 5 8 - - 0.0
22/04:00am 17.6 14.6 4.2 41 6.4 SSE 9 13 5 7 - - 0.0
22/03:30am 18.1 16.3 11.0 63 3.9 SSE 11 15 6 8 - - 0.0
22/03:00am 18.9 16.4 11.2 61 4.2 SSE 15 20 8 11 - - 0.0
22/02:30am 19.2 17.2 11.5 61 4.3 SSE 13 17 7 9 - - 0.0
22/02:00am 19.8 18.1 11.3 58 4.7 SSE 11 17 6 9 - - 0.0
22/01:30am 19.9 18.4 11.9 60 4.5 SSE 11 15 6 8 - - 0.0
22/01:00am 20.5 18.9 11.4 56 5.0 SSE 11 13 6 7 - - 0.0
22/12:30am 21.5 20.0 10.6 50 6.0 SSE 9 19 5 10 - - 0.0
22/12:00am 18.5 19.0 11.6 64 3.8 CALM 0 0 0 0 - - 0.0
 
Date/Time
EDT
Temp
°C
App
Temp
°C
Dew
Point
Rel
Hum
%
Delta-T
°C
Wind Press
QNH
hPa
Press
MSL
hPa
Rain
since 9 am
mm
Dir
 
Spd
km/h
Gust
km/h
Spd
kts
Gust
kts
21/11:30pm 20.1 20.4 10.8 55 5.1 CALM 0 0 0 0 - - 0.0
21/11:00pm 20.1 20.5 11.3 57 4.9 CALM 0 0 0 0 - - 0.0
21/10:30pm 21.1 21.2 10.3 50 5.9 CALM 0 0 0 0 - - 0.0
21/10:00pm 22.0 22.4 11.1 50 6.1 CALM 0 0 0 0 - - 0.0
21/09:30pm 24.0 23.6 9.9 41 7.8 NE 2 6 1 3 - - 0.0
21/09:00pm 26.2 24.5 8.2 32 9.7 NE 7 9 4 5 - - 0.0
21/08:30pm 27.6 25.2 6.9 27 11.0 NNE 9 9 5 5 - - 0.0
21/08:00pm 29.0 26.7 7.6 26 11.6 N 9 9 5 5 - - 0.0
21/07:30pm 30.1 27.5 6.1 22 12.8 NE 9 11 5 6 - - 0.0
21/07:00pm 30.8 28.2 6.0 21 13.2 NE 9 13 5 7 - - 0.0
21/06:30pm 31.5 29.1 5.1 19 13.9 NE 7 11 4 6 - - 0.0
21/06:00pm 31.4 28.8 4.2 18 14.1 E 7 11 4 6 - - 0.0
21/05:30pm 32.2 29.2 4.1 17 14.7 N 9 17 5 9 - - 0.0
21/05:00pm 32.4 30.1 5.8 19 14.3 ENE 7 17 4 9 - - 0.0
21/04:30pm 31.8 29.0 5.3 19 14.1 SSW 9 13 5 7 - - 0.0
21/04:00pm 31.7 27.8 5.3 19 14.0 ESE 15 26 8 14 - - 0.0
21/03:30pm 31.4 29.0 7.1 22 13.3 SW 9 20 5 11 - - 0.0
21/03:00pm 31.6 27.7 3.6 17 14.4 WSW 13 19 7 10 - - 0.0
21/02:30pm 31.4 29.4 7.1 22 13.3 SW 7 15 4 8 - - 0.0
21/02:00pm 31.0 26.6 4.7 19 13.8 WSW 17 22 9 12 - - 0.0
21/01:30pm 29.9 26.2 4.5 20 13.2 S 13 20 7 11 - - 0.0
21/01:00pm 30.1 26.6 5.4 21 13.0 WSW 13 22 7 12 - - 0.0
21/12:30pm 29.5 26.0 5.6 22 12.6 WSW 13 20 7 11 - - 0.0
21/12:00pm 29.6 27.7 7.5 25 12.0 NNE 7 13 4 7 - - 0.0
21/11:30am 28.6 25.9 7.2 26 11.5 NNE 11 15 6 8 - - 0.0
21/11:00am 28.2 25.3 8.0 28 11.0 NNE 13 19 7 10 - - 0.0
21/10:30am 27.1 24.5 9.5 33 9.8 NE 13 20 7 11 - - 0.0
21/10:00am 25.7 23.1 9.5 36 8.9 NNE 13 17 7 9 - - 0.0
21/09:30am 24.5 22.4 9.6 39 8.2 NNE 11 17 6 9 - - 0.0
21/09:00am 22.3 21.3 12.3 53 5.7 ENE 9 15 5 8 - - 0.0
21/08:30am 20.7 19.3 10.8 53 5.4 E 9 15 5 8 - - 0.0
21/08:00am 18.8 18.0 10.9 60 4.3 SE 6 9 3 5 - - 0.0
21/07:30am 16.4 15.6 11.8 74 2.5 SSE 7 9 4 5 - - 0.0
21/07:00am 14.4 13.4 11.0 80 1.8 SSE 7 11 4 6 - - 0.0
21/06:30am 12.9 11.4 10.6 86 1.2 SSE 9 9 5 5 - - 0.0
21/06:00am 12.1 10.4 9.8 86 1.2 SSE 9 9 5 5 - - 0.0
21/05:30am 12.1 12.1 9.7 85 1.2 CALM 0 0 0 0 - - 0.0
21/05:00am 12.6 11.5 9.8 83 1.4 SSE 6 6 3 3 - - 0.0
21/04:30am 13.2 11.5 10.0 81 1.7 SSE 9 9 5 5 - - 0.0
21/04:00am 13.8 11.8 10.2 79 1.9 SSE 11 13 6 7 - - 0.0
21/03:30am 14.2 11.9 10.4 78 2.0 SSE 13 17 7 9 - - 0.0
21/03:00am 14.5 12.6 10.5 77 2.1 SSE 11 15 6 8 - - 0.0
21/02:30am 15.0 12.7 10.4 74 2.4 SSE 13 19 7 10 - - 0.0
21/02:00am 15.6 13.3 10.4 71 2.8 SSE 13 19 7 10 - - 0.0
21/01:30am 16.3 13.9 10.2 67 3.2 SSE 13 19 7 10 - - 0.0
21/01:00am 16.9 14.0 9.8 63 3.7 SSE 15 20 8 11 - - 0.0
21/12:30am 17.6 14.8 8.5 55 4.7 SSE 13 17 7 9 - - 0.0
21/12:00am 18.3 15.4 8.0 51 5.3 S 13 17 7 9 - - 0.0
 
Date/Time
EDT
Temp
°C
App
Temp
°C
Dew
Point
Rel
Hum
%
Delta-T
°C
Wind Press
QNH
hPa
Press
MSL
hPa
Rain
since 9 am
mm
Dir
 
Spd
km/h
Gust
km/h
Spd
kts
Gust
kts
20/11:30pm 18.6 16.1 8.0 50 5.5 SSE 11 15 6 8 - - 0.0
20/11:00pm 19.1 16.6 8.1 49 5.7 SSE 11 13 6 7 - - 0.0
20/10:30pm 19.8 16.8 7.9 46 6.2 SSE 13 17 7 9 - - 0.0
20/10:00pm 20.9 18.2 7.5 42 6.9 SSE 11 17 6 9 - - 0.0
20/09:30pm 21.8 19.0 6.9 38 7.7 SSE 11 15 6 8 - - 0.0
20/09:00pm 23.2 20.0 6.9 35 8.5 SSE 13 20 7 11 - - 0.0
20/08:30pm 24.6 21.5 7.3 33 9.1 SSE 13 22 7 12 - - 0.0
20/08:00pm 26.3 23.9 6.9 29 10.3 SSE 9 11 5 6 - - 0.0
20/07:30pm 27.1 24.6 6.5 27 10.9 SSE 9 17 5 9 - - 0.0
20/07:00pm 27.5 24.3 5.1 24 11.6 SSE 11 15 6 8 - - 0.0
20/06:30pm 27.7 24.9 5.3 24 11.6 S 9 15 5 8 - - 0.0
20/06:00pm 27.5 23.9 5.1 24 11.6 SSE 13 20 7 11 - - 0.0
20/05:30pm 27.6 24.3 6.4 26 11.2 SSE 13 20 7 11 - - 0.0
20/05:00pm 27.4 23.9 5.6 25 11.3 S 13 22 7 12 - - 0.0
20/04:30pm 27.1 23.3 6.0 26 11.0 SSE 15 24 8 13 - - 0.0
20/04:00pm 27.2 23.8 7.6 29 10.5 S 15 24 8 13 - - 0.0
20/03:30pm 26.7 22.7 6.7 28 10.6 S 17 28 9 15 - - 0.0
20/03:00pm 26.9 24.5 6.9 28 10.6 SSE 9 20 5 11 - - 0.0
20/02:30pm 26.3 21.9 7.4 30 10.1 SSE 20 28 11 15 - - 0.0
20/02:00pm 25.6 21.7 7.2 31 9.7 S 17 24 9 13 - - 0.0
20/01:30pm 24.2 20.8 6.0 31 9.4 S 13 22 7 12 - - 0.0
20/01:00pm 23.6 20.4 6.8 34 8.7 SSE 13 20 7 11 - - 0.0
20/12:30pm 23.1 19.0 6.4 34 8.6 S 17 22 9 12 - - 0.0
20/12:00pm 22.6 18.5 6.4 35 8.3 SSW 17 28 9 15 - - 0.0
20/11:30am 21.1 17.0 6.2 38 7.5 SW 17 24 9 13 - - 0.0
20/11:00am 20.7 16.3 4.7 35 7.8 S 17 24 9 13 - - 0.0
20/10:30am 20.2 16.9 7.9 45 6.4 S 15 22 8 12 - - 0.0
20/10:00am 18.9 15.3 6.7 45 6.1 S 15 20 8 11 - - 0.0
20/09:30am 18.0 14.5 7.1 49 5.5 SSE 15 22 8 12 - - 0.0
20/09:00am 16.9 13.1 7.5 54 4.7 SSE 17 24 9 13 - - 0.0
20/08:30am 15.7 11.4 7.0 56 4.3 S 19 26 10 14 - - 0.0
20/08:00am 14.8 11.3 7.1 60 3.8 SSE 15 28 8 15 - - 0.0
20/07:30am 13.6 10.5 7.2 65 3.1 S 13 17 7 9 - - 0.0
20/07:00am 12.3 9.5 6.8 69 2.6 S 11 17 6 9 - - 0.0
20/06:30am 10.8 7.8 6.2 73 2.2 SSW 11 13 6 7 - - 0.0
20/06:00am 9.8 7.1 5.6 75 1.9 S 9 13 5 7 - - 0.0
20/05:30am 10.5 7.1 5.7 72 2.2 S 13 17 7 9 - - 0.0
20/05:00am 10.3 7.6 5.5 72 2.2 S 9 13 5 7 - - 0.0
20/04:30am 10.3 7.6 5.7 73 2.1 S 9 13 5 7 - - 0.0
20/04:00am 10.5 7.9 5.9 73 2.1 S 9 11 5 6 - - 0.0
20/03:30am 10.7 7.7 6.1 73 2.2 SSE 11 13 6 7 - - 0.0
20/03:00am 11.3 8.4 6.4 72 2.3 SSE 11 13 6 7 - - 0.0
20/02:30am 11.8 8.9 6.5 70 2.5 SSE 11 15 6 8 - - 0.0
20/02:00am 11.9 9.0 6.4 69 2.6 SSE 11 17 6 9 - - 0.0
20/01:30am 12.4 9.5 6.5 67 2.8 SSE 11 15 6 8 - - 0.0
20/01:00am 12.5 9.9 6.3 66 3.0 SSE 9 11 5 6 - - 0.0
20/12:30am 13.0 10.4 5.9 62 3.4 SSE 9 13 5 7 - - 0.0
20/12:00am 14.0 11.0 6.1 59 3.8 SSE 11 17 6 9 - - 0.0
 
Date/Time
EDT
Temp
°C
App
Temp
°C
Dew
Point
Rel
Hum
%
Delta-T
°C
Wind Press
QNH
hPa
Press
MSL
hPa
Rain
since 9 am
mm
Dir
 
Spd
km/h
Gust
km/h
Spd
kts
Gust
kts
19/11:30pm 14.4 11.3 5.5 55 4.2 SSE 11 13 6 7 - - 0.0
19/11:00pm 15.6 12.4 5.2 50 5.0 SSE 11 17 6 9 - - 0.0
19/10:30pm 15.9 12.7 4.9 48 5.2 SSE 11 15 6 8 - - 0.0

Other Formats:

Comma delimited format used in spreadsheet applications
http://www.bom.gov.au/fwo/IDV60801/IDV60801.95836.axf

JavaScript Object Notation format (JSON) in row-major order
http://www.bom.gov.au/fwo/IDV60801/IDV60801.95836.json